sensor_id;sensor_type;location;lat;lon;timestamp;P1;durP1;ratioP1;P2;durP2;ratioP2
6809;SDS011;3443;48.812;9.112;2022-12-18T00:01:05;58.23;;;37.53;;
6809;SDS011;3443;48.812;9.112;2022-12-18T00:03:38;60.63;;;38.00;;
6809;SDS011;3443;48.812;9.112;2022-12-18T00:06:04;58.20;;;37.63;;
6809;SDS011;3443;48.812;9.112;2022-12-18T00:08:29;55.20;;;34.77;;
6809;SDS011;3443;48.812;9.112;2022-12-18T00:10:55;53.73;;;35.27;;
6809;SDS011;3443;48.812;9.112;2022-12-18T00:13:38;54.23;;;34.97;;
6809;SDS011;3443;48.812;9.112;2022-12-18T00:16:05;55.07;;;34.47;;
6809;SDS011;3443;48.812;9.112;2022-12-18T00:18:35;52.70;;;35.30;;
6809;SDS011;3443;48.812;9.112;2022-12-18T00:21:01;52.87;;;34.30;;
6809;SDS011;3443;48.812;9.112;2022-12-18T00:23:29;51.80;;;35.23;;
6809;SDS011;3443;48.812;9.112;2022-12-18T00:25:55;52.53;;;34.90;;
6809;SDS011;3443;48.812;9.112;2022-12-18T00:28:24;47.87;;;32.27;;
6809;SDS011;3443;48.812;9.112;2022-12-18T00:30:50;48.33;;;33.50;;
6809;SDS011;3443;48.812;9.112;2022-12-18T00:33:16;51.17;;;33.17;;
6809;SDS011;3443;48.812;9.112;2022-12-18T00:35:42;52.83;;;35.10;;
6809;SDS011;3443;48.812;9.112;2022-12-18T00:38:08;50.63;;;33.73;;
6809;SDS011;3443;48.812;9.112;2022-12-18T00:40:33;51.60;;;33.73;;
6809;SDS011;3443;48.812;9.112;2022-12-18T00:42:59;53.90;;;35.63;;
6809;SDS011;3443;48.812;9.112;2022-12-18T00:45:25;55.17;;;35.80;;
6809;SDS011;3443;48.812;9.112;2022-12-18T00:47:53;52.43;;;34.13;;
6809;SDS011;3443;48.812;9.112;2022-12-18T00:50:19;51.70;;;34.63;;
6809;SDS011;3443;48.812;9.112;2022-12-18T00:52:46;53.33;;;34.57;;
6809;SDS011;3443;48.812;9.112;2022-12-18T00:55:12;50.23;;;34.07;;
6809;SDS011;3443;48.812;9.112;2022-12-18T00:57:37;53.50;;;35.00;;
6809;SDS011;3443;48.812;9.112;2022-12-18T01:00:04;50.97;;;34.07;;
6809;SDS011;3443;48.812;9.112;2022-12-18T01:02:31;50.77;;;33.90;;
6809;SDS011;3443;48.812;9.112;2022-12-18T01:04:56;51.33;;;33.53;;
6809;SDS011;3443;48.812;9.112;2022-12-18T01:07:22;52.93;;;33.80;;
6809;SDS011;3443;48.812;9.112;2022-12-18T01:09:48;47.80;;;32.23;;
6809;SDS011;3443;48.812;9.112;2022-12-18T01:12:13;52.00;;;33.60;;
6809;SDS011;3443;48.812;9.112;2022-12-18T01:14:39;46.77;;;32.17;;
6809;SDS011;3443;48.812;9.112;2022-12-18T01:17:04;47.80;;;32.40;;
6809;SDS011;3443;48.812;9.112;2022-12-18T01:19:30;48.10;;;31.60;;
6809;SDS011;3443;48.812;9.112;2022-12-18T01:21:55;49.73;;;32.67;;
6809;SDS011;3443;48.812;9.112;2022-12-18T01:24:21;47.60;;;31.13;;
6809;SDS011;3443;48.812;9.112;2022-12-18T01:26:47;46.40;;;31.90;;
6809;SDS011;3443;48.812;9.112;2022-12-18T01:29:12;47.80;;;32.27;;
6809;SDS011;3443;48.812;9.112;2022-12-18T01:31:38;53.63;;;33.77;;
6809;SDS011;3443;48.812;9.112;2022-12-18T01:34:04;45.90;;;30.87;;
6809;SDS011;3443;48.812;9.112;2022-12-18T01:36:31;51.47;;;33.70;;
6809;SDS011;3443;48.812;9.112;2022-12-18T01:39:00;49.13;;;33.17;;
6809;SDS011;3443;48.812;9.112;2022-12-18T01:41:31;46.57;;;32.00;;
6809;SDS011;3443;48.812;9.112;2022-12-18T01:49:47;46.43;;;31.50;;
6809;SDS011;3443;48.812;9.112;2022-12-18T01:52:13;50.63;;;32.43;;
6809;SDS011;3443;48.812;9.112;2022-12-18T01:54:39;49.77;;;33.47;;
6809;SDS011;3443;48.812;9.112;2022-12-18T01:57:05;47.97;;;31.83;;
6809;SDS011;3443;48.812;9.112;2022-12-18T01:59:31;48.17;;;32.53;;
6809;SDS011;3443;48.812;9.112;2022-12-18T02:01:59;49.43;;;32.73;;
6809;SDS011;3443;48.812;9.112;2022-12-18T02:04:26;48.43;;;32.33;;
6809;SDS011;3443;48.812;9.112;2022-12-18T02:10:03;48.07;;;32.23;;
6809;SDS011;3443;48.812;9.112;2022-12-18T02:12:42;45.80;;;31.97;;
6809;SDS011;3443;48.812;9.112;2022-12-18T02:17:54;47.90;;;33.03;;
6809;SDS011;3443;48.812;9.112;2022-12-18T02:20:45;48.30;;;31.50;;
6809;SDS011;3443;48.812;9.112;2022-12-18T02:29:03;45.77;;;31.50;;
6809;SDS011;3443;48.812;9.112;2022-12-18T02:31:36;47.97;;;33.00;;
6809;SDS011;3443;48.812;9.112;2022-12-18T02:34:30;45.37;;;31.93;;
6809;SDS011;3443;48.812;9.112;2022-12-18T02:36:58;51.50;;;35.67;;
6809;SDS011;3443;48.812;9.112;2022-12-18T02:39:26;48.87;;;33.80;;
6809;SDS011;3443;48.812;9.112;2022-12-18T02:41:55;48.50;;;33.30;;
6809;SDS011;3443;48.812;9.112;2022-12-18T02:44:22;54.50;;;34.63;;
6809;SDS011;3443;48.812;9.112;2022-12-18T02:46:51;51.73;;;34.43;;
6809;SDS011;3443;48.812;9.112;2022-12-18T02:49:35;47.33;;;31.67;;
6809;SDS011;3443;48.812;9.112;2022-12-18T03:00:48;52.70;;;34.43;;
6809;SDS011;3443;48.812;9.112;2022-12-18T03:08:42;50.50;;;33.07;;
6809;SDS011;3443;48.812;9.112;2022-12-18T03:11:12;48.23;;;31.43;;
6809;SDS011;3443;48.812;9.112;2022-12-18T03:13:39;46.67;;;32.17;;
6809;SDS011;3443;48.812;9.112;2022-12-18T03:16:16;48.23;;;31.90;;
6809;SDS011;3443;48.812;9.112;2022-12-18T03:21:51;46.63;;;30.27;;
6809;SDS011;3443;48.812;9.112;2022-12-18T03:24:20;49.77;;;31.93;;
6809;SDS011;3443;48.812;9.112;2022-12-18T03:26:49;49.10;;;31.70;;
6809;SDS011;3443;48.812;9.112;2022-12-18T03:29:25;51.43;;;33.73;;
6809;SDS011;3443;48.812;9.112;2022-12-18T03:32:00;52.97;;;34.43;;
6809;SDS011;3443;48.812;9.112;2022-12-18T03:34:31;48.80;;;32.23;;
6809;SDS011;3443;48.812;9.112;2022-12-18T03:37:02;48.20;;;31.97;;
6809;SDS011;3443;48.812;9.112;2022-12-18T03:39:28;53.80;;;34.30;;
6809;SDS011;3443;48.812;9.112;2022-12-18T03:47:25;50.83;;;32.63;;
6809;SDS011;3443;48.812;9.112;2022-12-18T03:50:12;49.03;;;31.90;;
6809;SDS011;3443;48.812;9.112;2022-12-18T03:52:48;49.67;;;31.60;;
6809;SDS011;3443;48.812;9.112;2022-12-18T03:55:19;47.70;;;30.43;;
6809;SDS011;3443;48.812;9.112;2022-12-18T03:57:47;49.43;;;32.47;;
6809;SDS011;3443;48.812;9.112;2022-12-18T04:00:14;51.00;;;33.03;;
6809;SDS011;3443;48.812;9.112;2022-12-18T04:02:43;52.93;;;32.80;;
6809;SDS011;3443;48.812;9.112;2022-12-18T04:05:12;45.93;;;30.70;;
6809;SDS011;3443;48.812;9.112;2022-12-18T04:07:38;52.03;;;32.33;;
6809;SDS011;3443;48.812;9.112;2022-12-18T04:10:06;54.20;;;33.07;;
6809;SDS011;3443;48.812;9.112;2022-12-18T04:12:32;49.57;;;31.90;;
6809;SDS011;3443;48.812;9.112;2022-12-18T04:14:58;49.57;;;31.50;;
6809;SDS011;3443;48.812;9.112;2022-12-18T04:17:23;54.47;;;33.20;;
6809;SDS011;3443;48.812;9.112;2022-12-18T04:19:49;52.90;;;32.67;;
6809;SDS011;3443;48.812;9.112;2022-12-18T04:22:15;47.93;;;31.33;;
6809;SDS011;3443;48.812;9.112;2022-12-18T04:24:41;47.33;;;29.33;;
6809;SDS011;3443;48.812;9.112;2022-12-18T04:27:06;46.77;;;30.63;;
6809;SDS011;3443;48.812;9.112;2022-12-18T04:29:32;43.60;;;29.47;;
6809;SDS011;3443;48.812;9.112;2022-12-18T04:31:57;43.50;;;28.43;;
6809;SDS011;3443;48.812;9.112;2022-12-18T04:34:23;40.77;;;27.83;;
6809;SDS011;3443;48.812;9.112;2022-12-18T04:36:49;40.40;;;27.10;;
6809;SDS011;3443;48.812;9.112;2022-12-18T04:39:17;41.73;;;27.20;;
6809;SDS011;3443;48.812;9.112;2022-12-18T04:41:43;39.50;;;27.67;;
6809;SDS011;3443;48.812;9.112;2022-12-18T04:44:08;39.53;;;26.37;;
6809;SDS011;3443;48.812;9.112;2022-12-18T04:46:35;38.40;;;26.37;;
6809;SDS011;3443;48.812;9.112;2022-12-18T04:49:00;38.53;;;25.93;;
6809;SDS011;3443;48.812;9.112;2022-12-18T04:51:26;40.70;;;26.33;;
6809;SDS011;3443;48.812;9.112;2022-12-18T04:53:52;37.23;;;26.17;;
6809;SDS011;3443;48.812;9.112;2022-12-18T04:56:18;37.40;;;25.33;;
6809;SDS011;3443;48.812;9.112;2022-12-18T04:58:44;35.03;;;24.63;;
6809;SDS011;3443;48.812;9.112;2022-12-18T05:01:10;35.70;;;23.63;;
6809;SDS011;3443;48.812;9.112;2022-12-18T05:03:37;38.57;;;25.47;;
6809;SDS011;3443;48.812;9.112;2022-12-18T05:06:03;36.50;;;25.67;;
6809;SDS011;3443;48.812;9.112;2022-12-18T05:08:30;36.70;;;26.77;;
6809;SDS011;3443;48.812;9.112;2022-12-18T05:10:59;36.50;;;26.43;;
6809;SDS011;3443;48.812;9.112;2022-12-18T05:13:25;36.50;;;24.43;;
6809;SDS011;3443;48.812;9.112;2022-12-18T05:15:51;35.40;;;24.50;;
6809;SDS011;3443;48.812;9.112;2022-12-18T05:18:17;35.43;;;23.87;;
6809;SDS011;3443;48.812;9.112;2022-12-18T05:20:43;36.03;;;24.80;;
6809;SDS011;3443;48.812;9.112;2022-12-18T05:23:08;35.97;;;25.03;;
6809;SDS011;3443;48.812;9.112;2022-12-18T05:25:34;34.30;;;24.30;;
6809;SDS011;3443;48.812;9.112;2022-12-18T05:27:59;34.47;;;24.60;;
6809;SDS011;3443;48.812;9.112;2022-12-18T05:30:25;35.97;;;25.47;;
6809;SDS011;3443;48.812;9.112;2022-12-18T05:32:51;37.83;;;26.03;;
6809;SDS011;3443;48.812;9.112;2022-12-18T05:35:16;35.70;;;25.10;;
6809;SDS011;3443;48.812;9.112;2022-12-18T05:37:42;37.07;;;25.67;;
6809;SDS011;3443;48.812;9.112;2022-12-18T05:40:07;33.93;;;24.67;;
6809;SDS011;3443;48.812;9.112;2022-12-18T05:42:33;36.33;;;24.73;;
6809;SDS011;3443;48.812;9.112;2022-12-18T05:44:59;38.17;;;26.83;;
6809;SDS011;3443;48.812;9.112;2022-12-18T05:47:24;35.90;;;24.80;;
6809;SDS011;3443;48.812;9.112;2022-12-18T05:49:51;34.67;;;25.10;;
6809;SDS011;3443;48.812;9.112;2022-12-18T05:52:17;34.37;;;24.53;;
6809;SDS011;3443;48.812;9.112;2022-12-18T05:54:42;31.43;;;23.47;;
6809;SDS011;3443;48.812;9.112;2022-12-18T05:57:08;35.43;;;24.57;;
6809;SDS011;3443;48.812;9.112;2022-12-18T05:59:34;33.63;;;23.27;;
6809;SDS011;3443;48.812;9.112;2022-12-18T06:01:59;35.80;;;24.10;;
6809;SDS011;3443;48.812;9.112;2022-12-18T06:04:26;33.23;;;23.93;;
6809;SDS011;3443;48.812;9.112;2022-12-18T06:06:55;35.83;;;24.17;;
6809;SDS011;3443;48.812;9.112;2022-12-18T06:09:20;35.10;;;24.10;;
6809;SDS011;3443;48.812;9.112;2022-12-18T06:11:46;35.77;;;24.50;;
6809;SDS011;3443;48.812;9.112;2022-12-18T06:14:12;32.63;;;23.37;;
6809;SDS011;3443;48.812;9.112;2022-12-18T06:16:37;34.83;;;24.33;;
6809;SDS011;3443;48.812;9.112;2022-12-18T06:19:04;35.87;;;23.80;;
6809;SDS011;3443;48.812;9.112;2022-12-18T06:21:30;34.07;;;23.20;;
6809;SDS011;3443;48.812;9.112;2022-12-18T06:23:57;32.40;;;22.97;;
6809;SDS011;3443;48.812;9.112;2022-12-18T06:26:23;36.63;;;25.07;;
6809;SDS011;3443;48.812;9.112;2022-12-18T06:28:49;35.20;;;23.53;;
6809;SDS011;3443;48.812;9.112;2022-12-18T06:31:15;36.10;;;23.87;;
6809;SDS011;3443;48.812;9.112;2022-12-18T06:33:41;34.53;;;24.10;;
6809;SDS011;3443;48.812;9.112;2022-12-18T06:36:11;34.57;;;23.83;;
6809;SDS011;3443;48.812;9.112;2022-12-18T06:38:39;34.93;;;23.23;;
6809;SDS011;3443;48.812;9.112;2022-12-18T06:41:07;31.37;;;23.27;;
6809;SDS011;3443;48.812;9.112;2022-12-18T06:43:33;31.93;;;22.47;;
6809;SDS011;3443;48.812;9.112;2022-12-18T06:45:59;32.10;;;23.00;;
6809;SDS011;3443;48.812;9.112;2022-12-18T06:48:25;32.10;;;23.20;;
6809;SDS011;3443;48.812;9.112;2022-12-18T06:50:51;32.60;;;23.57;;
6809;SDS011;3443;48.812;9.112;2022-12-18T06:53:17;33.33;;;23.20;;
6809;SDS011;3443;48.812;9.112;2022-12-18T06:55:42;32.80;;;23.17;;
6809;SDS011;3443;48.812;9.112;2022-12-18T06:58:08;34.93;;;24.00;;
6809;SDS011;3443;48.812;9.112;2022-12-18T07:00:33;32.33;;;23.50;;
6809;SDS011;3443;48.812;9.112;2022-12-18T07:02:59;32.60;;;22.83;;
6809;SDS011;3443;48.812;9.112;2022-12-18T07:05:25;35.83;;;23.30;;
6809;SDS011;3443;48.812;9.112;2022-12-18T07:07:50;29.77;;;21.77;;
6809;SDS011;3443;48.812;9.112;2022-12-18T07:10:16;33.50;;;22.60;;
6809;SDS011;3443;48.812;9.112;2022-12-18T07:12:41;32.47;;;23.33;;
6809;SDS011;3443;48.812;9.112;2022-12-18T07:15:07;31.73;;;22.07;;
6809;SDS011;3443;48.812;9.112;2022-12-18T07:17:33;33.40;;;23.80;;
6809;SDS011;3443;48.812;9.112;2022-12-18T07:19:58;31.77;;;22.60;;
6809;SDS011;3443;48.812;9.112;2022-12-18T07:22:27;30.67;;;22.20;;
6809;SDS011;3443;48.812;9.112;2022-12-18T07:24:53;35.47;;;23.40;;
6809;SDS011;3443;48.812;9.112;2022-12-18T07:27:18;31.37;;;23.13;;
6809;SDS011;3443;48.812;9.112;2022-12-18T07:29:44;44.27;;;28.47;;
6809;SDS011;3443;48.812;9.112;2022-12-18T07:32:09;39.60;;;25.77;;
6809;SDS011;3443;48.812;9.112;2022-12-18T07:34:35;47.90;;;29.77;;
6809;SDS011;3443;48.812;9.112;2022-12-18T07:37:00;51.53;;;31.63;;
6809;SDS011;3443;48.812;9.112;2022-12-18T07:39:26;48.63;;;29.70;;
6809;SDS011;3443;48.812;9.112;2022-12-18T07:41:52;48.37;;;30.50;;
6809;SDS011;3443;48.812;9.112;2022-12-18T07:44:36;44.23;;;29.23;;
6809;SDS011;3443;48.812;9.112;2022-12-18T07:47:02;38.77;;;27.00;;
6809;SDS011;3443;48.812;9.112;2022-12-18T07:49:28;39.97;;;26.80;;
6809;SDS011;3443;48.812;9.112;2022-12-18T07:51:54;34.97;;;25.40;;
6809;SDS011;3443;48.812;9.112;2022-12-18T07:54:21;37.43;;;26.13;;
6809;SDS011;3443;48.812;9.112;2022-12-18T07:56:47;36.13;;;24.53;;
6809;SDS011;3443;48.812;9.112;2022-12-18T07:59:13;36.07;;;25.27;;
6809;SDS011;3443;48.812;9.112;2022-12-18T08:01:38;33.47;;;23.43;;
6809;SDS011;3443;48.812;9.112;2022-12-18T08:04:04;34.17;;;24.13;;
6809;SDS011;3443;48.812;9.112;2022-12-18T08:06:30;33.60;;;23.57;;
6809;SDS011;3443;48.812;9.112;2022-12-18T08:08:55;34.83;;;24.90;;
6809;SDS011;3443;48.812;9.112;2022-12-18T08:11:22;30.23;;;22.70;;
6809;SDS011;3443;48.812;9.112;2022-12-18T08:13:49;35.13;;;24.90;;
6809;SDS011;3443;48.812;9.112;2022-12-18T08:16:14;37.33;;;26.33;;
6809;SDS011;3443;48.812;9.112;2022-12-18T08:18:40;37.70;;;26.10;;
6809;SDS011;3443;48.812;9.112;2022-12-18T08:23:40;36.87;;;25.43;;
6809;SDS011;3443;48.812;9.112;2022-12-18T08:26:06;36.33;;;25.80;;
6809;SDS011;3443;48.812;9.112;2022-12-18T08:28:33;37.70;;;26.03;;
6809;SDS011;3443;48.812;9.112;2022-12-18T08:31:00;34.33;;;23.97;;
6809;SDS011;3443;48.812;9.112;2022-12-18T08:33:26;36.43;;;26.57;;
6809;SDS011;3443;48.812;9.112;2022-12-18T08:35:52;37.67;;;25.17;;
6809;SDS011;3443;48.812;9.112;2022-12-18T08:38:18;38.87;;;26.37;;
6809;SDS011;3443;48.812;9.112;2022-12-18T08:40:43;37.17;;;27.87;;
6809;SDS011;3443;48.812;9.112;2022-12-18T08:43:09;39.27;;;27.33;;
6809;SDS011;3443;48.812;9.112;2022-12-18T08:45:54;40.10;;;27.70;;
6809;SDS011;3443;48.812;9.112;2022-12-18T08:48:20;38.20;;;26.93;;
6809;SDS011;3443;48.812;9.112;2022-12-18T08:50:56;37.83;;;28.43;;
6809;SDS011;3443;48.812;9.112;2022-12-18T08:53:24;36.27;;;27.90;;
6809;SDS011;3443;48.812;9.112;2022-12-18T08:55:50;38.90;;;26.93;;
6809;SDS011;3443;48.812;9.112;2022-12-18T08:58:15;39.20;;;27.00;;
6809;SDS011;3443;48.812;9.112;2022-12-18T09:00:41;38.40;;;27.53;;
6809;SDS011;3443;48.812;9.112;2022-12-18T09:03:16;37.20;;;26.00;;
6809;SDS011;3443;48.812;9.112;2022-12-18T09:05:43;36.27;;;26.20;;
6809;SDS011;3443;48.812;9.112;2022-12-18T09:08:10;36.37;;;26.50;;
6809;SDS011;3443;48.812;9.112;2022-12-18T09:10:43;37.80;;;25.67;;
6809;SDS011;3443;48.812;9.112;2022-12-18T09:13:13;40.33;;;27.07;;
6809;SDS011;3443;48.812;9.112;2022-12-18T09:15:49;42.47;;;27.80;;
6809;SDS011;3443;48.812;9.112;2022-12-18T09:18:17;40.90;;;29.40;;
6809;SDS011;3443;48.812;9.112;2022-12-18T09:20:44;40.00;;;28.53;;
6809;SDS011;3443;48.812;9.112;2022-12-18T09:23:10;44.60;;;30.73;;
6809;SDS011;3443;48.812;9.112;2022-12-18T09:25:36;44.27;;;30.97;;
6809;SDS011;3443;48.812;9.112;2022-12-18T09:28:03;43.50;;;31.57;;
6809;SDS011;3443;48.812;9.112;2022-12-18T09:30:37;42.80;;;31.13;;
6809;SDS011;3443;48.812;9.112;2022-12-18T09:33:04;47.87;;;32.03;;
6809;SDS011;3443;48.812;9.112;2022-12-18T09:35:30;43.37;;;30.60;;
6809;SDS011;3443;48.812;9.112;2022-12-18T09:37:55;43.77;;;32.33;;
6809;SDS011;3443;48.812;9.112;2022-12-18T09:40:22;46.00;;;31.10;;
6809;SDS011;3443;48.812;9.112;2022-12-18T09:42:57;44.10;;;31.60;;
6809;SDS011;3443;48.812;9.112;2022-12-18T09:45:27;45.47;;;32.50;;
6809;SDS011;3443;48.812;9.112;2022-12-18T09:48:05;74.20;;;45.90;;
6809;SDS011;3443;48.812;9.112;2022-12-18T09:50:35;43.43;;;30.53;;
6809;SDS011;3443;48.812;9.112;2022-12-18T09:53:05;45.27;;;30.07;;
6809;SDS011;3443;48.812;9.112;2022-12-18T09:55:38;46.80;;;31.60;;
6809;SDS011;3443;48.812;9.112;2022-12-18T09:58:07;43.93;;;28.97;;
6809;SDS011;3443;48.812;9.112;2022-12-18T10:00:36;43.73;;;28.97;;
6809;SDS011;3443;48.812;9.112;2022-12-18T10:03:03;44.27;;;26.90;;
6809;SDS011;3443;48.812;9.112;2022-12-18T10:19:39;41.30;;;27.80;;
6809;SDS011;3443;48.812;9.112;2022-12-18T10:22:30;39.10;;;26.73;;
6809;SDS011;3443;48.812;9.112;2022-12-18T10:25:23;39.43;;;27.20;;
6809;SDS011;3443;48.812;9.112;2022-12-18T10:28:03;38.00;;;26.83;;
6809;SDS011;3443;48.812;9.112;2022-12-18T10:30:35;43.20;;;26.97;;
6809;SDS011;3443;48.812;9.112;2022-12-18T10:33:04;71.83;;;38.50;;
6809;SDS011;3443;48.812;9.112;2022-12-18T10:35:30;40.33;;;26.57;;
6809;SDS011;3443;48.812;9.112;2022-12-18T10:38:38;41.27;;;26.00;;
6809;SDS011;3443;48.812;9.112;2022-12-18T10:40:54;42.07;;;28.83;;
6809;SDS011;3443;48.812;9.112;2022-12-18T10:43:27;39.97;;;24.73;;
6809;SDS011;3443;48.812;9.112;2022-12-18T10:46:05;45.40;;;30.10;;
6809;SDS011;3443;48.812;9.112;2022-12-18T10:48:40;40.43;;;26.10;;
6809;SDS011;3443;48.812;9.112;2022-12-18T10:51:20;37.73;;;24.03;;
6809;SDS011;3443;48.812;9.112;2022-12-18T10:53:51;39.33;;;25.17;;
6809;SDS011;3443;48.812;9.112;2022-12-18T10:56:26;36.67;;;24.40;;
6809;SDS011;3443;48.812;9.112;2022-12-18T10:59:01;37.03;;;25.23;;
6809;SDS011;3443;48.812;9.112;2022-12-18T11:01:28;35.00;;;24.23;;
6809;SDS011;3443;48.812;9.112;2022-12-18T11:04:13;33.80;;;22.03;;
6809;SDS011;3443;48.812;9.112;2022-12-18T11:09:34;36.73;;;23.30;;
6809;SDS011;3443;48.812;9.112;2022-12-18T11:12:02;36.40;;;22.17;;
6809;SDS011;3443;48.812;9.112;2022-12-18T11:14:43;36.70;;;23.30;;
6809;SDS011;3443;48.812;9.112;2022-12-18T11:17:19;34.63;;;22.70;;
6809;SDS011;3443;48.812;9.112;2022-12-18T11:20:10;31.73;;;21.50;;
6809;SDS011;3443;48.812;9.112;2022-12-18T11:22:54;34.97;;;22.80;;
6809;SDS011;3443;48.812;9.112;2022-12-18T11:25:22;37.07;;;23.20;;
6809;SDS011;3443;48.812;9.112;2022-12-18T11:27:49;35.73;;;21.90;;
6809;SDS011;3443;48.812;9.112;2022-12-18T11:30:28;38.77;;;23.90;;
6809;SDS011;3443;48.812;9.112;2022-12-18T11:32:56;36.83;;;24.33;;
6809;SDS011;3443;48.812;9.112;2022-12-18T11:38:55;37.37;;;24.27;;
6809;SDS011;3443;48.812;9.112;2022-12-18T11:43:55;40.43;;;25.47;;
6809;SDS011;3443;48.812;9.112;2022-12-18T11:49:01;36.63;;;23.40;;
6809;SDS011;3443;48.812;9.112;2022-12-18T11:51:37;40.63;;;24.00;;
6809;SDS011;3443;48.812;9.112;2022-12-18T11:54:12;36.77;;;24.80;;
6809;SDS011;3443;48.812;9.112;2022-12-18T11:56:43;37.07;;;23.47;;
6809;SDS011;3443;48.812;9.112;2022-12-18T11:59:22;35.30;;;21.97;;
6809;SDS011;3443;48.812;9.112;2022-12-18T12:02:03;35.37;;;23.47;;
6809;SDS011;3443;48.812;9.112;2022-12-18T12:04:47;35.37;;;22.07;;
6809;SDS011;3443;48.812;9.112;2022-12-18T12:07:41;39.23;;;24.10;;
6809;SDS011;3443;48.812;9.112;2022-12-18T12:12:58;37.03;;;22.97;;
6809;SDS011;3443;48.812;9.112;2022-12-18T12:18:16;35.07;;;20.87;;
6809;SDS011;3443;48.812;9.112;2022-12-18T12:26:02;34.00;;;20.53;;
6809;SDS011;3443;48.812;9.112;2022-12-18T12:28:36;34.77;;;21.50;;
6809;SDS011;3443;48.812;9.112;2022-12-18T12:34:22;32.63;;;19.93;;
6809;SDS011;3443;48.812;9.112;2022-12-18T12:39:42;35.23;;;21.03;;
6809;SDS011;3443;48.812;9.112;2022-12-18T12:42:14;34.87;;;20.30;;
6809;SDS011;3443;48.812;9.112;2022-12-18T12:45:20;33.53;;;20.87;;
6809;SDS011;3443;48.812;9.112;2022-12-18T12:48:12;39.53;;;24.53;;
6809;SDS011;3443;48.812;9.112;2022-12-18T12:50:42;34.27;;;20.47;;
6809;SDS011;3443;48.812;9.112;2022-12-18T12:53:09;33.13;;;20.27;;
6809;SDS011;3443;48.812;9.112;2022-12-18T12:55:46;32.47;;;19.67;;
6809;SDS011;3443;48.812;9.112;2022-12-18T12:58:16;31.43;;;19.50;;
6809;SDS011;3443;48.812;9.112;2022-12-18T13:03:50;37.53;;;20.87;;
6809;SDS011;3443;48.812;9.112;2022-12-18T13:09:10;35.83;;;19.97;;
6809;SDS011;3443;48.812;9.112;2022-12-18T13:11:42;32.60;;;19.20;;
6809;SDS011;3443;48.812;9.112;2022-12-18T13:19:56;35.70;;;20.47;;
6809;SDS011;3443;48.812;9.112;2022-12-18T13:22:46;33.40;;;20.70;;
6809;SDS011;3443;48.812;9.112;2022-12-18T13:25:27;37.60;;;21.17;;
6809;SDS011;3443;48.812;9.112;2022-12-18T13:28:09;36.20;;;22.03;;
6809;SDS011;3443;48.812;9.112;2022-12-18T13:46:06;33.27;;;18.93;;
6809;SDS011;3443;48.812;9.112;2022-12-18T13:48:34;31.10;;;18.47;;
6809;SDS011;3443;48.812;9.112;2022-12-18T13:51:04;30.07;;;18.00;;
6809;SDS011;3443;48.812;9.112;2022-12-18T13:56:21;28.67;;;18.20;;
6809;SDS011;3443;48.812;9.112;2022-12-18T14:01:55;30.13;;;18.53;;
6809;SDS011;3443;48.812;9.112;2022-12-18T14:07:05;34.13;;;19.47;;
6809;SDS011;3443;48.812;9.112;2022-12-18T14:09:50;31.60;;;19.30;;
6809;SDS011;3443;48.812;9.112;2022-12-18T14:12:19;31.93;;;18.87;;
6809;SDS011;3443;48.812;9.112;2022-12-18T14:15:06;34.33;;;20.57;;
6809;SDS011;3443;48.812;9.112;2022-12-18T14:17:59;34.67;;;19.87;;
6809;SDS011;3443;48.812;9.112;2022-12-18T14:20:28;33.33;;;20.23;;
6809;SDS011;3443;48.812;9.112;2022-12-18T14:22:56;34.37;;;21.87;;
6809;SDS011;3443;48.812;9.112;2022-12-18T14:27:51;41.23;;;23.77;;
6809;SDS011;3443;48.812;9.112;2022-12-18T14:30:27;38.07;;;21.97;;
6809;SDS011;3443;48.812;9.112;2022-12-18T14:33:02;38.00;;;21.50;;
6809;SDS011;3443;48.812;9.112;2022-12-18T14:35:31;41.53;;;24.67;;
6809;SDS011;3443;48.812;9.112;2022-12-18T14:40:45;40.20;;;24.03;;
6809;SDS011;3443;48.812;9.112;2022-12-18T14:43:11;39.70;;;24.50;;
6809;SDS011;3443;48.812;9.112;2022-12-18T14:45:37;40.23;;;23.90;;
6809;SDS011;3443;48.812;9.112;2022-12-18T14:48:13;42.50;;;26.33;;
6809;SDS011;3443;48.812;9.112;2022-12-18T14:50:59;40.87;;;24.23;;
6809;SDS011;3443;48.812;9.112;2022-12-18T14:56:02;42.50;;;26.80;;
6809;SDS011;3443;48.812;9.112;2022-12-18T14:58:37;44.37;;;25.43;;
6809;SDS011;3443;48.812;9.112;2022-12-18T15:01:02;39.97;;;23.97;;
6809;SDS011;3443;48.812;9.112;2022-12-18T15:03:28;44.73;;;27.97;;
6809;SDS011;3443;48.812;9.112;2022-12-18T15:05:53;44.30;;;27.53;;
6809;SDS011;3443;48.812;9.112;2022-12-18T15:08:35;46.57;;;28.80;;
6809;SDS011;3443;48.812;9.112;2022-12-18T15:11:02;44.87;;;28.10;;
6809;SDS011;3443;48.812;9.112;2022-12-18T15:13:28;44.67;;;28.47;;
6809;SDS011;3443;48.812;9.112;2022-12-18T15:15:54;45.50;;;25.93;;
6809;SDS011;3443;48.812;9.112;2022-12-18T15:18:27;56.17;;;33.23;;
6809;SDS011;3443;48.812;9.112;2022-12-18T15:21:07;48.87;;;28.80;;
6809;SDS011;3443;48.812;9.112;2022-12-18T15:23:36;48.30;;;29.87;;
6809;SDS011;3443;48.812;9.112;2022-12-18T15:26:08;56.20;;;33.20;;
6809;SDS011;3443;48.812;9.112;2022-12-18T15:33:35;45.33;;;30.27;;
6809;SDS011;3443;48.812;9.112;2022-12-18T15:36:09;41.33;;;25.23;;
6809;SDS011;3443;48.812;9.112;2022-12-18T15:38:37;41.63;;;26.83;;
6809;SDS011;3443;48.812;9.112;2022-12-18T15:41:03;42.67;;;26.57;;
6809;SDS011;3443;48.812;9.112;2022-12-18T15:43:39;43.13;;;26.20;;
6809;SDS011;3443;48.812;9.112;2022-12-18T15:48:49;44.50;;;26.17;;
6809;SDS011;3443;48.812;9.112;2022-12-18T15:51:17;45.43;;;27.20;;
6809;SDS011;3443;48.812;9.112;2022-12-18T15:53:43;41.93;;;25.87;;
6809;SDS011;3443;48.812;9.112;2022-12-18T15:56:10;46.27;;;27.33;;
6809;SDS011;3443;48.812;9.112;2022-12-18T15:59:13;42.17;;;26.57;;
6809;SDS011;3443;48.812;9.112;2022-12-18T16:01:40;45.87;;;28.83;;
6809;SDS011;3443;48.812;9.112;2022-12-18T16:04:09;46.00;;;27.23;;
6809;SDS011;3443;48.812;9.112;2022-12-18T16:06:37;43.20;;;26.87;;
6809;SDS011;3443;48.812;9.112;2022-12-18T16:09:02;42.83;;;26.00;;
6809;SDS011;3443;48.812;9.112;2022-12-18T16:11:28;43.57;;;28.13;;
6809;SDS011;3443;48.812;9.112;2022-12-18T16:16:55;46.53;;;28.37;;
6809;SDS011;3443;48.812;9.112;2022-12-18T16:19:23;44.27;;;26.50;;
6809;SDS011;3443;48.812;9.112;2022-12-18T16:21:50;47.87;;;27.30;;
6809;SDS011;3443;48.812;9.112;2022-12-18T16:24:18;46.23;;;28.77;;
6809;SDS011;3443;48.812;9.112;2022-12-18T16:26:47;45.40;;;27.77;;
6809;SDS011;3443;48.812;9.112;2022-12-18T16:29:13;45.87;;;29.27;;
6809;SDS011;3443;48.812;9.112;2022-12-18T16:31:39;48.00;;;29.00;;
6809;SDS011;3443;48.812;9.112;2022-12-18T16:34:18;45.57;;;28.70;;
6809;SDS011;3443;48.812;9.112;2022-12-18T16:36:48;42.87;;;26.60;;
6809;SDS011;3443;48.812;9.112;2022-12-18T16:39:15;43.67;;;27.77;;
6809;SDS011;3443;48.812;9.112;2022-12-18T16:41:41;52.97;;;32.37;;
6809;SDS011;3443;48.812;9.112;2022-12-18T16:44:06;61.77;;;39.80;;
6809;SDS011;3443;48.812;9.112;2022-12-18T16:46:32;45.17;;;29.23;;
6809;SDS011;3443;48.812;9.112;2022-12-18T16:48:58;43.97;;;28.37;;
6809;SDS011;3443;48.812;9.112;2022-12-18T16:51:24;44.53;;;27.83;;
6809;SDS011;3443;48.812;9.112;2022-12-18T16:53:51;48.57;;;28.27;;
6809;SDS011;3443;48.812;9.112;2022-12-18T16:56:18;42.30;;;27.27;;
6809;SDS011;3443;48.812;9.112;2022-12-18T16:58:43;40.63;;;26.70;;
6809;SDS011;3443;48.812;9.112;2022-12-18T17:01:18;43.33;;;26.77;;
6809;SDS011;3443;48.812;9.112;2022-12-18T17:03:44;43.57;;;26.40;;
6809;SDS011;3443;48.812;9.112;2022-12-18T17:06:15;44.27;;;26.83;;
6809;SDS011;3443;48.812;9.112;2022-12-18T17:08:41;41.47;;;26.40;;
6809;SDS011;3443;48.812;9.112;2022-12-18T17:11:06;45.03;;;27.90;;
6809;SDS011;3443;48.812;9.112;2022-12-18T17:13:32;43.03;;;26.83;;
6809;SDS011;3443;48.812;9.112;2022-12-18T17:16:05;46.00;;;28.47;;
6809;SDS011;3443;48.812;9.112;2022-12-18T17:18:32;47.03;;;28.67;;
6809;SDS011;3443;48.812;9.112;2022-12-18T17:21:01;45.47;;;28.80;;